ドーハ の空港の天気 - METARとTAF

ドーハ国際空港 ( OTBD / DOH ) - カタール ドーハ
飛行場実況気象(Metar)
観測時間04/25 17:00 AST (04/25 14:00 UTC)
風向・風速北 5m/s
視程10km以上
天気現象
なし
気温31℃
湿度38%
気圧1010hPa
METAROTBD 251400Z 35010KT CAVOK 31/15 Q1010 NOSIG
過去の天気等 Google飛行場航空写真 Wunderground天気予報

過去48時間のMETAR

飛行場予報(TAF)
発表時間: 4/25 08:12 AST (4/25 05:12 UTC)
予報対象時間: 25日9時 AST ~ 26日15時 AST
風向・風速北 7m/s
視程8,000m
なし
25日9時 AST ~ 25日15時 AST に一時的に
風向・風速北 9m/s
25日10時 AST ~ 25日18時 AST に 確率 30% で一時的に
視程7,000m
天気現象弱い雨
少しの雲 雲底高度 910m
TAF OTBD 250512Z 2506/2612 35013KT 8000 NSC
TEMPO 2506/2512 36018KT
PROB30 TEMPO 2507/2515 7000 -RA FEW030